Terminal Aerodrome Forecast
Issued by NWS

Home | Current Version | Previous Version | Text Only | Print | Product List | Glossary On
Versions: 1 2 3 4 5 6 7 8 9 10 11 12 13 14 15 16 17 18 19 20 21 22 23 24 25 26 27
000
FTUS43 KGRR 161100 RRA
TAFAZO
TAF
KAZO 161142Z 1612/1712 VRB03KT 3SM BR SCT008
     FM161230 VRB03KT 1/2SM FG OVC002
     FM161400 VRB04KT 2SM BR BKN012
     FM161430 32005KT 4SM BR SCT012 BKN025
     FM161600 31006KT P6SM SCT035=

USA.gov is the U.S. government's official web portal to all federal, state and local government web resources and services.